Decoded Metar for YPPD (PORT HEDLAND in AUSTRALIA) (IATA:PHE) | Meteo·Mobile Aviation Weather
aviador You're here:

YPPD Decoded Metar

PORT HEDLAND in AUSTRALIA
Report Time2019-06-17 05:00:00
UTC Time2019-06-17 05:06:53
Flight Rules vfr VFR
Wind120° at 14 kt
W.Decomp.*RWY 14: 13.1 kt HW 5 kt LCW
RWY 18: 6.8 kt HW 12.2 kt LCW
Visibility9999 m
Phenomena:N/A
Clouds:N/A
Expected CloudBase > 11,200 ft AGL from Temp-Dew spread
CeilingNone
Temp27°C (ISA +12)
Dew Point-1°C (16% RH)
Heat Index26.0°C
AAT19.8°C
QNH1016 hPa
Density Alt1,391 ft
Elevation20 ft
Report Wrong Elevation
Raw Report
METAR YPPD 170500Z AUTO 12014KT 9999 // NCD 27/M01 Q1016=

Extra information for YPPD:More info

Metar Taf Metar & Taf Last 4 Metars F.Rules Stats Wind Profile Meteogram Temp Stats Airport Information Weather charts Add Link Nearby VenuesMetar ALERT Operation Metar Decoded Social comments